Time;durP1;ratioP1;P1;durP2;ratioP2;P2;SDS_P1;SDS_P2;PMS_P1;PMS_P2;Temp;Humidity;BMP_temperature;BMP_pressure;BME280_temperature;BME280_humidity;BME280_pressure;Samples;Min_cycle;Max_cycle;Signal;HPM_P1;HPM_P2
2022/08/02 00:02:12;;;;;;;1.05;0.98;;;22.60;93.20;;;;;;5110793;28;20253;-47
2022/08/02 00:04:39;;;;;;;2.10;1.25;;;22.70;93.30;;;;;;5110272;28;20196;-39
2022/08/02 00:07:07;;;;;;;1.13;1.05;;;22.60;93.30;;;;;;5111240;28;20276;-44
2022/08/02 00:09:34;;;;;;;1.40;1.30;;;22.60;93.40;;;;;;5110975;28;20196;-41
2022/08/02 00:12:01;;;;;;;2.13;1.20;;;22.70;93.40;;;;;;5110640;27;20702;-42
2022/08/02 00:14:28;;;;;;;1.00;1.00;;;22.60;93.50;;;;;;5100707;28;20207;-40
2022/08/02 00:16:55;;;;;;;1.20;1.15;;;22.60;93.50;;;;;;5110842;28;20204;-38
2022/08/02 00:19:22;;;;;;;1.30;1.20;;;22.50;93.60;;;;;;5110202;28;20220;-39
2022/08/02 00:21:49;;;;;;;1.00;1.00;;;22.60;93.70;;;;;;5109787;28;20722;-42
2022/08/02 00:24:18;;;;;;;1.00;1.00;;;22.60;93.70;;;;;;5110242;28;20191;-46
2022/08/02 00:26:45;;;;;;;1.10;1.10;;;22.60;93.70;;;;;;5110047;28;20188;-43
2022/08/02 00:29:12;;;;;;;1.48;1.38;;;22.60;93.80;;;;;;5100597;28;20208;-43
2022/08/02 00:31:39;;;;;;;0.90;0.90;;;22.60;93.90;;;;;;5111237;28;20200;-43
2022/08/02 00:34:06;;;;;;;1.52;1.10;;;22.50;93.90;;;;;;5107668;28;20187;-41
2022/08/02 00:36:33;;;;;;;1.00;1.00;;;22.50;93.90;;;;;;5104816;28;20612;-42
2022/08/02 00:39:00;;;;;;;1.30;1.13;;;22.50;94.00;;;;;;5108192;28;20208;-39
2022/08/02 00:41:29;;;;;;;1.00;1.00;;;22.60;94.10;;;;;;5111689;28;20728;-41
2022/08/02 00:43:57;;;;;;;1.00;1.00;;;22.50;94.10;;;;;;5108317;28;20191;-41
2022/08/02 00:46:24;;;;;;;0.95;0.95;;;22.50;94.10;;;;;;5103887;28;20191;-39
2022/08/02 00:48:51;;;;;;;1.00;1.00;;;22.50;94.20;;;;;;5100195;28;20200;-39
2022/08/02 00:51:18;;;;;;;1.20;1.10;;;22.50;94.20;;;;;;5110910;28;20200;-47
2022/08/02 00:53:45;;;;;;;0.80;0.80;;;22.50;94.30;;;;;;5106753;28;20567;-43
2022/08/02 00:56:12;;;;;;;3.15;1.10;;;22.40;94.60;;;;;;5110316;28;20287;-39
2022/08/02 00:58:41;;;;;;;1.48;1.45;;;22.40;94.40;;;;;;5106256;28;20211;-45
2022/08/02 01:01:07;;;;;;;1.17;1.10;;;22.40;94.70;;;;;;5110433;28;20508;-47
2022/08/02 01:03:34;;;;;;;1.05;0.95;;;22.40;94.80;;;;;;5098474;28;20196;-40
2022/08/02 01:06:01;;;;;;;1.08;1.08;;;22.40;94.90;;;;;;5109480;28;20288;-45
2022/08/02 01:08:28;;;;;;;1.40;1.30;;;22.40;94.90;;;;;;5106548;28;20222;-47
2022/08/02 01:10:55;;;;;;;0.82;0.82;;;22.40;95.10;;;;;;5107810;28;20237;-45
2022/08/02 01:13:24;;;;;;;0.98;0.98;;;22.40;95.20;;;;;;5104828;28;20311;-47
2022/08/02 01:16:00;;;;;;;0.93;0.93;;;22.40;95.30;;;;;;5110126;28;20640;-43
2022/08/02 01:18:31;;;;;;;1.15;1.15;;;22.40;95.40;;;;;;5106145;28;20223;-44
2022/08/02 01:21:23;;;;;;;1.00;1.00;;;22.30;95.40;;;;;;5109088;28;20195;-40
2022/08/02 01:24:16;;;;;;;1.10;1.10;;;22.30;95.50;;;;;;5107688;28;20657;-41
2022/08/02 01:26:48;;;;;;;1.48;1.30;;;22.30;95.70;;;;;;5108029;28;20195;-43
2022/08/02 01:29:26;;;;;;;1.10;1.10;;;22.30;95.80;;;;;;5103999;28;20212;-37
2022/08/02 01:31:57;;;;;;;1.05;1.05;;;22.30;95.90;;;;;;5105126;28;20206;-37
2022/08/02 01:34:30;;;;;;;1.00;1.00;;;22.20;96.00;;;;;;5107778;28;20241;-37
2022/08/02 01:37:02;;;;;;;0.93;0.93;;;22.20;96.10;;;;;;5106954;28;20237;-37
2022/08/02 01:39:34;;;;;;;1.10;1.10;;;22.20;96.30;;;;;;5100896;28;20262;-37
2022/08/02 01:42:03;;;;;;;1.00;1.00;;;22.20;96.30;;;;;;5108035;27;20188;-38
2022/08/02 01:44:35;;;;;;;1.20;1.10;;;22.20;96.40;;;;;;5105204;28;20275;-37
2022/08/02 01:47:07;;;;;;;2.15;1.40;;;22.10;96.50;;;;;;5096990;28;20254;-38
2022/08/02 01:49:37;;;;;;;1.35;1.35;;;22.10;96.70;;;;;;5100857;28;20283;-38
2022/08/02 01:52:23;;;;;;;1.65;1.55;;;22.10;96.80;;;;;;5107504;28;20543;-38
2022/08/02 01:54:56;;;;;;;1.40;1.30;;;22.10;96.90;;;;;;5104598;28;20186;-38
2022/08/02 01:57:24;;;;;;;1.30;1.30;;;22.10;97.10;;;;;;5100457;28;20693;-38
2022/08/02 01:59:56;;;;;;;1.88;1.63;;;22.10;97.10;;;;;;5105560;28;20192;-39
2022/08/02 02:02:24;;;;;;;1.50;1.40;;;22.00;97.20;;;;;;5108593;28;20282;-39
2022/08/02 02:04:53;;;;;;;1.25;1.23;;;22.00;97.30;;;;;;5105962;28;20274;-39
2022/08/02 02:07:21;;;;;;;1.10;1.10;;;22.00;97.40;;;;;;5106634;28;20636;-38
2022/08/02 02:09:50;;;;;;;1.05;1.05;;;22.00;97.50;;;;;;5102312;28;20219;-40
2022/08/02 02:12:18;;;;;;;1.40;1.40;;;22.00;97.50;;;;;;5106499;28;20192;-38
2022/08/02 02:14:46;;;;;;;1.40;1.30;;;22.00;97.60;;;;;;5104429;28;20270;-38
2022/08/02 02:17:16;;;;;;;1.20;1.10;;;22.00;97.70;;;;;;5107293;28;20239;-37
2022/08/02 02:19:45;;;;;;;1.05;1.05;;;22.00;97.70;;;;;;5106409;28;20291;-39
2022/08/02 02:22:13;;;;;;;0.90;0.90;;;22.00;97.70;;;;;;5107172;28;20188;-37
2022/08/02 02:24:40;;;;;;;1.15;1.10;;;22.00;97.80;;;;;;5107046;28;20216;-38
2022/08/02 02:27:09;;;;;;;1.50;1.40;;;22.00;97.80;;;;;;5095772;28;20578;-37
2022/08/02 02:29:39;;;;;;;1.73;1.63;;;22.00;97.90;;;;;;5103869;28;20555;-38
2022/08/02 02:32:07;;;;;;;1.15;1.15;;;21.90;97.90;;;;;;5106249;28;20195;-37
2022/08/02 02:34:39;;;;;;;1.85;1.20;;;21.90;98.00;;;;;;5105339;28;20192;-37
2022/08/02 02:37:12;;;;;;;1.10;1.10;;;21.90;98.00;;;;;;5094633;28;20279;-38
2022/08/02 02:39:42;;;;;;;1.00;1.00;;;21.90;98.10;;;;;;5100906;28;20204;-38
2022/08/02 02:42:13;;;;;;;1.00;1.00;;;21.90;98.10;;;;;;5108141;28;20196;-38
2022/08/02 02:44:41;;;;;;;1.15;1.15;;;21.80;98.10;;;;;;5105681;28;20307;-39
2022/08/02 02:47:10;;;;;;;1.05;1.05;;;21.80;98.20;;;;;;5105247;28;20299;-38
2022/08/02 02:49:39;;;;;;;1.08;1.08;;;21.80;98.20;;;;;;5098413;28;20184;-40
2022/08/02 02:52:08;;;;;;;1.10;1.10;;;21.80;98.20;;;;;;5109054;28;20215;-38
2022/08/02 02:54:38;;;;;;;1.20;1.20;;;21.80;98.30;;;;;;5100357;28;20195;-37
2022/08/02 02:57:06;;;;;;;1.10;1.10;;;21.80;98.30;;;;;;5099137;28;20249;-44
2022/08/02 02:59:35;;;;;;;1.30;1.20;;;21.80;98.30;;;;;;5091576;28;20217;-42
2022/08/02 03:02:02;;;;;;;2.17;1.17;;;21.80;98.30;;;;;;5108723;28;20202;-45
2022/08/02 03:04:31;;;;;;;0.88;0.88;;;21.80;98.40;;;;;;5106852;28;20601;-46
2022/08/02 03:07:01;;;;;;;0.90;0.90;;;21.80;98.40;;;;;;5107865;28;20555;-47
2022/08/02 03:09:28;;;;;;;1.45;1.10;;;21.80;98.40;;;;;;5108971;28;20216;-43
2022/08/02 03:11:56;;;;;;;0.95;0.95;;;21.80;98.50;;;;;;5113232;28;20638;-42
2022/08/02 03:14:23;;;;;;;1.10;1.00;;;21.70;98.40;;;;;;5108253;28;20223;-41
2022/08/02 03:16:53;;;;;;;0.77;0.77;;;21.80;98.50;;;;;;5112016;28;20199;-44
2022/08/02 03:19:21;;;;;;;1.13;1.00;;;21.70;98.50;;;;;;5110173;28;20307;-46
2022/08/02 03:21:50;;;;;;;1.40;1.00;;;21.70;98.50;;;;;;5111912;28;20195;-40
2022/08/02 03:24:19;;;;;;;2.15;1.33;;;21.70;98.50;;;;;;5102365;28;20228;-44
2022/08/02 03:26:46;;;;;;;1.40;1.10;;;21.70;98.80;;;;;;5110792;28;20184;-40
2022/08/02 03:29:13;;;;;;;1.20;1.00;;;21.70;98.40;;;;;;5108637;28;20318;-45
2022/08/02 03:31:43;;;;;;;0.95;0.80;;;21.70;98.40;;;;;;5113139;28;20612;-41
2022/08/02 03:34:10;;;;;;;1.58;0.90;;;21.70;98.40;;;;;;5108817;28;20210;-43
2022/08/02 03:36:38;;;;;;;0.98;0.95;;;21.70;98.40;;;;;;5104568;28;20275;-43
2022/08/02 03:39:07;;;;;;;0.85;0.85;;;21.70;98.40;;;;;;5109553;28;20203;-40
2022/08/02 03:41:37;;;;;;;1.95;1.08;;;21.70;98.40;;;;;;5106893;28;20532;-38
2022/08/02 03:44:05;;;;;;;0.93;0.90;;;21.70;98.40;;;;;;5104664;28;20196;-41
2022/08/02 03:46:33;;;;;;;1.55;1.00;;;21.80;98.40;;;;;;5110453;28;20252;-45
2022/08/02 03:49:01;;;;;;;0.98;0.98;;;21.70;98.40;;;;;;5109121;28;20547;-41
2022/08/02 03:51:28;;;;;;;0.88;0.88;;;21.70;98.70;;;;;;5110004;28;20279;-43
2022/08/02 03:53:56;;;;;;;1.23;0.80;;;21.70;98.40;;;;;;5106514;27;20617;-42
2022/08/02 03:56:23;;;;;;;1.88;1.00;;;21.70;98.70;;;;;;5111137;28;20728;-38
2022/08/02 03:59:06;;;;;;;0.90;0.90;;;21.70;98.40;;;;;;5108598;28;20242;-41
2022/08/02 04:01:33;;;;;;;0.90;0.90;;;21.70;98.40;;;;;;5112503;28;20559;-44
2022/08/02 04:04:00;;;;;;;0.90;0.90;;;21.70;98.40;;;;;;5098519;27;20197;-43
2022/08/02 04:06:27;;;;;;;1.15;0.75;;;21.70;98.40;;;;;;5111504;28;20231;-44
2022/08/02 04:08:54;;;;;;;1.35;0.98;;;21.70;98.40;;;;;;5109425;28;20216;-39
2022/08/02 04:11:33;;;;;;;1.10;1.10;;;21.70;98.40;;;;;;5102919;28;20195;-41
2022/08/02 04:14:05;;;;;;;0.95;0.95;;;21.70;98.40;;;;;;5107644;28;20684;-38
2022/08/02 04:16:40;;;;;;;1.00;1.00;;;21.70;98.40;;;;;;5108213;28;20276;-41
2022/08/02 04:19:11;;;;;;;1.02;0.88;;;21.70;98.40;;;;;;5123724;27;20233;-43
2022/08/02 04:21:41;;;;;;;0.98;0.93;;;21.70;98.40;;;;;;5099804;28;20197;-38
2022/08/02 04:24:10;;;;;;;1.23;1.00;;;21.70;98.40;;;;;;5110274;28;20294;-38
2022/08/02 04:26:38;;;;;;;0.93;0.93;;;21.70;98.50;;;;;;5107480;28;20185;-41
2022/08/02 04:29:07;;;;;;;1.92;0.82;;;21.70;98.50;;;;;;5106890;27;20192;-44
2022/08/02 04:31:35;;;;;;;0.90;0.90;;;21.70;98.50;;;;;;5109040;28;20189;-42
2022/08/02 04:34:02;;;;;;;0.77;0.77;;;21.70;98.50;;;;;;5109567;28;20655;-44
2022/08/02 04:36:30;;;;;;;1.27;0.95;;;21.70;98.50;;;;;;5108614;28;20188;-39
2022/08/02 04:38:57;;;;;;;1.15;1.05;;;21.70;98.40;;;;;;5109234;28;20211;-38
2022/08/02 04:41:36;;;;;;;1.98;1.20;;;21.70;98.40;;;;;;5109592;28;20521;-44
2022/08/02 04:44:03;;;;;;;1.00;1.00;;;21.70;98.40;;;;;;5099520;28;20199;-45
2022/08/02 04:46:31;;;;;;;1.40;1.00;;;21.70;98.70;;;;;;5108743;28;20192;-41
2022/08/02 04:48:58;;;;;;;1.40;1.20;;;21.70;98.40;;;;;;5109835;28;20183;-40
2022/08/02 04:51:25;;;;;;;1.25;1.17;;;21.70;98.40;;;;;;5108988;28;20712;-44
2022/08/02 04:53:53;;;;;;;1.15;1.00;;;21.70;98.20;;;;;;5110337;28;20223;-40
2022/08/02 04:56:20;;;;;;;1.00;0.90;;;21.70;98.20;;;;;;5102895;28;20279;-38
2022/08/02 04:58:47;;;;;;;1.20;1.00;;;21.80;98.20;;;;;;5108256;28;20576;-37
2022/08/02 05:01:14;;;;;;;1.85;0.90;;;21.80;98.10;;;;;;5109666;28;20552;-37
2022/08/02 05:03:42;;;;;;;1.98;1.08;;;21.80;98.00;;;;;;5108360;28;20245;-37
2022/08/02 05:06:09;;;;;;;0.98;0.80;;;21.80;97.90;;;;;;5109070;28;20248;-37
2022/08/02 05:08:36;;;;;;;1.85;0.73;;;21.90;97.90;;;;;;5104827;28;20267;-38
2022/08/02 05:11:03;;;;;;;2.72;0.90;;;21.90;97.70;;;;;;5109550;28;20614;-37
2022/08/02 05:13:30;;;;;;;0.75;0.75;;;21.90;97.70;;;;;;5101096;28;20204;-37
2022/08/02 05:16:00;;;;;;;1.00;0.85;;;21.90;97.60;;;;;;5107244;28;20204;-37
2022/08/02 05:18:28;;;;;;;0.90;0.90;;;21.90;97.60;;;;;;5107882;28;20310;-37
2022/08/02 05:20:56;;;;;;;1.77;0.80;;;22.00;97.50;;;;;;5103050;28;20532;-37
2022/08/02 05:23:23;;;;;;;2.00;1.02;;;22.00;97.40;;;;;;5105359;28;20227;-38
2022/08/02 05:25:50;;;;;;;1.00;0.82;;;22.00;97.20;;;;;;5108240;28;20219;-39
2022/08/02 05:28:17;;;;;;;0.77;0.77;;;22.00;97.10;;;;;;5104391;28;20253;-38
2022/08/02 05:30:44;;;;;;;3.70;0.77;;;22.00;97.10;;;;;;5120528;27;20192;-37
2022/08/02 05:33:11;;;;;;;0.60;0.60;;;22.00;97.00;;;;;;5109387;28;20249;-40
2022/08/02 05:35:38;;;;;;;0.68;0.68;;;22.00;97.00;;;;;;5107285;28;20189;-38
2022/08/02 05:38:07;;;;;;;2.13;0.95;;;22.00;96.80;;;;;;5108234;28;20667;-38
2022/08/02 05:40:34;;;;;;;0.77;0.77;;;22.10;96.80;;;;;;5099704;28;20230;-38
2022/08/02 05:43:01;;;;;;;0.90;0.82;;;22.10;96.70;;;;;;5095428;28;20257;-38
2022/08/02 05:45:28;;;;;;;1.20;0.80;;;22.10;96.60;;;;;;5107404;28;20245;-38
2022/08/02 05:47:55;;;;;;;0.77;0.77;;;22.10;96.40;;;;;;5107816;28;20207;-38
2022/08/02 05:50:22;;;;;;;0.95;0.70;;;22.10;96.30;;;;;;5103331;28;20192;-42
2022/08/02 05:52:51;;;;;;;1.67;0.95;;;22.10;96.10;;;;;;5099540;28;20851;-37
2022/08/02 05:55:27;;;;;;;0.60;0.60;;;22.10;96.00;;;;;;5098550;28;20193;-38
2022/08/02 05:58:02;;;;;;;0.70;0.70;;;22.10;95.80;;;;;;5098561;28;20210;-37
2022/08/02 06:00:31;;;;;;;3.08;1.05;;;22.10;95.70;;;;;;5109662;28;20200;-38
2022/08/02 06:03:17;;;;;;;1.88;1.10;;;22.10;95.40;;;;;;5107176;28;20194;-38
2022/08/02 06:05:53;;;;;;;3.22;1.45;;;22.10;95.20;;;;;;5106360;28;20230;-38
2022/08/02 06:08:24;;;;;;;1.02;0.90;;;22.10;95.00;;;;;;5105518;28;20608;-37
2022/08/02 06:10:57;;;;;;;0.80;0.80;;;22.10;94.90;;;;;;5109048;28;20192;-38
2022/08/02 06:13:25;;;;;;;0.98;0.90;;;22.10;94.90;;;;;;5104971;28;20207;-37
2022/08/02 06:15:54;;;;;;;2.50;0.80;;;22.20;94.90;;;;;;5106895;28;20200;-37
2022/08/02 06:18:22;;;;;;;0.80;0.80;;;22.20;94.80;;;;;;5104574;28;20232;-38
2022/08/02 06:20:50;;;;;;;0.98;0.80;;;22.30;94.80;;;;;;5106941;28;20204;-37
2022/08/02 06:23:20;;;;;;;1.52;0.80;;;22.30;94.60;;;;;;5107574;28;20196;-40
2022/08/02 06:25:49;;;;;;;0.98;0.70;;;22.30;94.50;;;;;;5108410;28;20231;-41
2022/08/02 06:28:20;;;;;;;1.80;0.73;;;22.40;94.40;;;;;;5101796;28;20198;-44
2022/08/02 06:30:47;;;;;;;3.13;0.98;;;22.40;93.90;;;;;;5107679;28;20229;-42
2022/08/02 06:33:14;;;;;;;1.52;0.75;;;22.40;93.80;;;;;;5095538;28;20345;-45
2022/08/02 06:35:45;;;;;;;0.93;0.93;;;22.40;93.70;;;;;;5103423;28;20279;-44
2022/08/02 06:38:18;;;;;;;0.70;0.70;;;22.40;93.50;;;;;;5105548;28;20219;-44
2022/08/02 06:40:52;;;;;;;0.80;0.80;;;22.50;93.30;;;;;;5108656;28;20223;-44
2022/08/02 06:43:28;;;;;;;1.27;0.82;;;22.50;93.00;;;;;;5105584;28;20267;-42
2022/08/02 06:45:55;;;;;;;1.40;0.90;;;22.50;92.80;;;;;;5107915;28;20191;-41
2022/08/02 06:48:22;;;;;;;0.77;0.77;;;22.50;92.60;;;;;;5106561;28;20205;-46
2022/08/02 06:50:49;;;;;;;0.82;0.80;;;22.60;92.50;;;;;;5105065;28;20197;-41
2022/08/02 06:53:16;;;;;;;0.73;0.73;;;22.60;92.40;;;;;;5102583;28;20279;-45
2022/08/02 06:55:43;;;;;;;0.98;0.75;;;22.60;91.80;;;;;;5108268;28;20219;-39
2022/08/02 06:58:10;;;;;;;0.80;0.80;;;22.60;91.70;;;;;;5106868;28;20192;-45
2022/08/02 07:00:39;;;;;;;0.80;0.80;;;22.60;91.60;;;;;;5107709;28;20295;-43
2022/08/02 07:03:06;;;;;;;1.45;0.93;;;22.70;91.40;;;;;;5107680;28;20233;-42
2022/08/02 07:05:34;;;;;;;2.50;0.80;;;22.70;91.10;;;;;;5105642;28;20206;-47
2022/08/02 07:08:02;;;;;;;0.80;0.80;;;22.70;90.70;;;;;;5108291;28;20215;-37
2022/08/02 07:10:29;;;;;;;0.60;0.60;;;22.80;90.50;;;;;;5108200;28;20221;-45
2022/08/02 07:12:56;;;;;;;0.90;0.90;;;22.80;90.20;;;;;;5102429;28;20353;-43
2022/08/02 07:15:23;;;;;;;0.60;0.60;;;22.90;89.50;;;;;;5107960;28;20184;-38
2022/08/02 07:17:52;;;;;;;0.70;0.70;;;22.90;88.70;;;;;;5107290;28;20236;-41
2022/08/02 07:20:19;;;;;;;1.15;0.70;;;22.90;87.40;;;;;;5123019;28;20244;-41
2022/08/02 07:22:46;;;;;;;3.75;0.68;;;23.00;87.20;;;;;;5106247;28;20439;-41
2022/08/02 07:25:13;;;;;;;1.67;0.73;;;23.00;86.90;;;;;;5107945;28;20195;-42
2022/08/02 07:27:40;;;;;;;9.52;0.80;;;23.00;86.50;;;;;;5105127;28;20265;-40
2022/08/02 07:30:08;;;;;;;1.50;0.80;;;23.10;85.90;;;;;;5106952;28;20245;-42
2022/08/02 07:32:35;;;;;;;1.40;0.80;;;23.10;85.30;;;;;;5105751;28;20196;-38
2022/08/02 07:35:05;;;;;;;2.42;0.90;;;23.10;84.20;;;;;;5105699;28;20269;-40
2022/08/02 07:37:33;;;;;;;0.90;0.85;;;23.20;83.70;;;;;;5103801;28;20203;-40
2022/08/02 07:40:00;;;;;;;3.00;0.70;;;23.20;83.50;;;;;;5107439;28;20196;-43
2022/08/02 07:42:28;;;;;;;0.60;0.60;;;23.30;82.90;;;;;;5105406;28;20671;-43
2022/08/02 07:44:55;;;;;;;2.78;1.30;;;23.30;82.40;;;;;;5095804;28;20660;-40
2022/08/02 07:47:22;;;;;;;1.60;0.98;;;23.30;81.00;;;;;;5107111;28;20200;-42
2022/08/02 07:49:49;;;;;;;0.95;0.82;;;23.30;79.50;;;;;;5095676;28;21026;-38
2022/08/02 07:52:17;;;;;;;4.10;0.80;;;23.40;79.00;;;;;;5104016;28;20188;-41
2022/08/02 07:54:45;;;;;;;1.70;0.80;;;23.40;78.70;;;;;;5106820;28;20192;-41
2022/08/02 07:57:13;;;;;;;0.80;0.80;;;23.50;78.40;;;;;;5107439;28;20200;-45
2022/08/02 07:59:39;;;;;;;0.95;0.80;;;23.50;77.80;;;;;;5108765;28;20288;-40
2022/08/02 08:02:06;;;;;;;0.70;0.70;;;23.50;77.80;;;;;;5110828;28;20195;-43
2022/08/02 08:04:33;;;;;;;1.52;1.02;;;23.50;77.40;;;;;;5110130;28;20278;-45
2022/08/02 08:07:00;;;;;;;2.25;0.90;;;23.50;77.10;;;;;;5110057;28;20199;-43
2022/08/02 08:09:29;;;;;;;0.68;0.60;;;23.60;77.30;;;;;;5109543;28;20180;-43
2022/08/02 08:11:56;;;;;;;3.58;0.82;;;23.60;77.40;;;;;;5108609;28;20368;-46
2022/08/02 08:14:23;;;;;;;0.68;0.52;;;23.60;77.20;;;;;;5106225;28;20727;-44
2022/08/02 08:16:50;;;;;;;0.60;0.60;;;23.80;77.20;;;;;;5109225;28;20219;-39
2022/08/02 08:19:17;;;;;;;1.65;0.85;;;23.80;76.90;;;;;;5102045;28;20244;-41
2022/08/02 08:21:44;;;;;;;4.40;1.20;;;23.90;76.10;;;;;;5110243;28;20288;-42
2022/08/02 08:24:11;;;;;;;0.82;0.70;;;23.90;75.00;;;;;;5110353;28;20319;-44
2022/08/02 08:26:40;;;;;;;0.95;0.70;;;24.00;75.20;;;;;;5108177;28;20192;-42
2022/08/02 08:29:07;;;;;;;1.05;0.70;;;24.00;75.20;;;;;;5108201;28;20191;-37
2022/08/02 08:31:34;;;;;;;1.00;0.70;;;24.10;75.20;;;;;;5107904;28;20192;-39
2022/08/02 08:34:01;;;;;;;0.60;0.60;;;24.20;74.90;;;;;;5109482;28;20195;-38
2022/08/02 08:36:28;;;;;;;1.65;0.80;;;24.20;74.50;;;;;;5106001;28;20196;-37
2022/08/02 08:38:55;;;;;;;2.33;0.95;;;24.20;73.60;;;;;;5109567;28;20204;-37
2022/08/02 08:41:22;;;;;;;1.63;0.90;;;24.30;73.00;;;;;;5108461;28;20233;-37
2022/08/02 08:43:51;;;;;;;4.13;1.23;;;24.30;72.20;;;;;;5094920;28;20653;-38
2022/08/02 08:46:26;;;;;;;0.73;0.73;;;24.30;71.40;;;;;;5107177;28;20697;-38
2022/08/02 08:49:00;;;;;;;0.70;0.70;;;24.40;71.60;;;;;;5110752;28;20198;-40
2022/08/02 08:51:35;;;;;;;1.42;0.68;;;24.50;71.60;;;;;;5107583;28;20188;-37
2022/08/02 08:54:03;;;;;;;0.60;0.60;;;24.60;71.00;;;;;;5099389;28;20188;-38
2022/08/02 08:56:33;;;;;;;0.80;0.80;;;24.60;70.80;;;;;;5105377;28;20207;-37
2022/08/02 08:59:03;;;;;;;4.32;0.80;;;24.70;70.80;;;;;;5105773;28;20192;-40
2022/08/02 09:01:30;;;;;;;0.85;0.85;;;24.70;70.10;;;;;;5109724;28;20232;-39
2022/08/02 09:03:58;;;;;;;0.90;0.90;;;24.80;70.40;;;;;;5094994;28;20600;-40
2022/08/02 09:06:25;;;;;;;0.70;0.70;;;24.90;70.20;;;;;;5110515;28;20493;-41
2022/08/02 09:08:53;;;;;;;0.60;0.60;;;24.90;70.00;;;;;;5107778;28;20188;-40
2022/08/02 09:11:24;;;;;;;0.60;0.60;;;25.00;69.50;;;;;;5109001;28;20286;-40
2022/08/02 09:13:53;;;;;;;1.60;0.90;;;25.10;69.50;;;;;;5103690;28;20189;-39
2022/08/02 09:16:33;;;;;;;1.15;0.80;;;25.10;69.20;;;;;;5108845;28;20671;-42
2022/08/02 09:19:01;;;;;;;2.38;1.30;;;25.20;68.70;;;;;;5106504;28;20230;-44
2022/08/02 09:21:36;;;;;;;2.20;1.10;;;25.20;67.80;;;;;;5108240;28;20245;-43
2022/08/02 09:24:14;;;;;;;2.90;2.03;;;25.30;66.90;;;;;;5107134;28;20199;-42
2022/08/02 09:26:42;;;;;;;1.85;1.58;;;25.30;64.70;;;;;;5104987;28;20214;-41
2022/08/02 09:29:09;;;;;;;1.13;1.13;;;25.30;65.30;;;;;;5103376;28;20272;-42
2022/08/02 09:31:38;;;;;;;1.88;1.40;;;25.40;65.50;;;;;;5107046;28;20749;-44
2022/08/02 09:34:05;;;;;;;2.72;1.58;;;25.40;65.30;;;;;;5106901;28;20227;-47
2022/08/02 09:36:38;;;;;;;1.42;1.30;;;25.50;63.70;;;;;;5104470;28;20188;-44
2022/08/02 09:39:08;;;;;;;2.88;1.25;;;25.50;63.90;;;;;;5106099;28;20197;-44
2022/08/02 09:41:39;;;;;;;1.90;1.17;;;25.60;64.10;;;;;;5099528;28;20236;-40
2022/08/02 09:44:08;;;;;;;0.70;0.70;;;25.70;63.40;;;;;;5105938;28;20215;-42
2022/08/02 09:46:38;;;;;;;0.98;0.70;;;25.70;62.70;;;;;;5098424;28;20206;-42
2022/08/02 09:49:08;;;;;;;0.65;0.65;;;25.80;62.40;;;;;;5107604;28;20278;-43
2022/08/02 09:51:37;;;;;;;0.60;0.60;;;25.90;61.90;;;;;;5105761;27;20375;-42
2022/08/02 09:54:07;;;;;;;0.77;0.68;;;25.90;61.70;;;;;;5107520;28;20571;-39
2022/08/02 09:56:43;;;;;;;1.52;0.60;;;26.00;61.50;;;;;;5095832;28;20413;-41
2022/08/02 09:59:11;;;;;;;1.65;0.93;;;26.00;61.20;;;;;;5103870;28;20816;-38
2022/08/02 10:01:40;;;;;;;0.98;0.70;;;26.10;60.60;;;;;;5097344;28;20213;-45
2022/08/02 10:04:10;;;;;;;0.57;0.57;;;26.20;60.40;;;;;;5105226;28;20291;-46
2022/08/02 10:06:38;;;;;;;0.85;0.70;;;26.20;60.20;;;;;;5109088;28;20195;-43
2022/08/02 10:09:06;;;;;;;0.43;0.43;;;26.30;60.10;;;;;;5105744;28;20279;-43
2022/08/02 10:11:34;;;;;;;1.20;1.10;;;26.30;60.30;;;;;;5105225;28;20195;-44
2022/08/02 10:14:04;;;;;;;9.85;2.00;;;26.30;61.40;;;;;;5103833;28;20197;-44
2022/08/02 10:16:36;;;;;;;3.42;1.92;;;26.40;62.90;;;;;;5106967;28;20215;-43
2022/08/02 10:19:05;;;;;;;2.38;1.40;;;26.40;63.30;;;;;;5105868;28;20686;-41
2022/08/02 10:21:37;;;;;;;1.33;1.15;;;26.40;63.80;;;;;;5108010;28;20208;-41
2022/08/02 10:24:07;;;;;;;1.00;1.00;;;26.50;64.10;;;;;;5106342;28;20196;-37
2022/08/02 10:26:35;;;;;;;1.65;1.13;;;26.60;64.40;;;;;;5106913;28;20275;-39
2022/08/02 10:29:02;;;;;;;0.95;0.90;;;26.70;64.60;;;;;;5101612;28;20718;-40
2022/08/02 10:31:36;;;;;;;1.33;1.00;;;26.80;64.60;;;;;;5101090;28;20271;-38
2022/08/02 10:34:09;;;;;;;2.33;1.33;;;26.90;64.60;;;;;;5101323;28;20701;-38
2022/08/02 10:36:39;;;;;;;1.70;1.25;;;26.90;64.60;;;;;;5104387;28;20289;-38
2022/08/02 10:39:06;;;;;;;1.17;0.95;;;27.00;64.60;;;;;;5107720;28;20239;-38
2022/08/02 10:41:44;;;;;;;5.55;1.73;;;27.00;64.60;;;;;;5106668;28;20370;-38
2022/08/02 10:44:22;;;;;;;4.40;1.60;;;27.10;63.90;;;;;;5104874;28;20333;-37
2022/08/02 10:46:49;;;;;;;2.50;1.20;;;27.00;63.70;;;;;;5107398;28;20184;-37
2022/08/02 10:49:19;;;;;;;2.17;1.17;;;27.00;64.10;;;;;;5105718;28;20599;-37
2022/08/02 10:52:13;;;;;;;3.25;1.10;;;27.00;64.20;;;;;;5106862;28;20199;-39
2022/08/02 10:54:41;;;;;;;1.77;0.93;;;27.00;64.40;;;;;;5107557;28;20279;-37
2022/08/02 10:57:18;;;;;;;6.28;2.50;;;27.10;64.70;;;;;;5104514;28;20283;-38
2022/08/02 10:59:45;;;;;;;1.48;1.38;;;27.10;64.70;;;;;;5104751;28;20548;-38
2022/08/02 11:02:13;;;;;;;2.50;1.50;;;27.10;64.90;;;;;;5108549;28;20294;-38
2022/08/02 11:05:04;;;;;;;5.88;1.30;;;27.00;64.60;;;;;;5106310;28;20639;-39
2022/08/02 11:07:35;;;;;;;3.20;1.38;;;26.90;64.80;;;;;;5101041;28;20283;-39
2022/08/02 11:10:33;;;;;;;2.88;1.42;;;27.00;65.80;;;;;;5107379;28;20724;-40
2022/08/02 11:13:03;;;;;;;2.42;0.95;;;27.00;65.20;;;;;;5106178;28;20188;-38
2022/08/02 11:15:46;;;;;;;2.50;1.30;;;27.00;65.10;;;;;;5106022;28;20666;-36
2022/08/02 11:18:14;;;;;;;10.90;1.85;;;26.90;65.10;;;;;;5106609;28;20310;-36
2022/08/02 11:20:42;;;;;;;4.97;1.50;;;26.90;64.80;;;;;;5097794;28;20687;-42
2022/08/02 11:23:35;;;;;;;4.30;1.40;;;26.90;64.60;;;;;;5106848;28;20278;-40
2022/08/02 11:26:04;;;;;;;2.70;1.20;;;26.90;64.70;;;;;;5105192;28;20211;-39
2022/08/02 11:28:31;;;;;;;9.13;1.30;;;26.90;64.60;;;;;;5104759;28;20191;-38
2022/08/02 11:31:00;;;;;;;17.35;2.13;;;26.90;64.50;;;;;;5128919;27;20184;-39
2022/08/02 11:33:35;;;;;;;1.90;1.25;;;27.00;64.80;;;;;;5110594;28;20744;-41
2022/08/02 11:36:06;;;;;;;1.63;1.23;;;26.90;64.90;;;;;;5103228;28;20196;-39
2022/08/02 11:38:33;;;;;;;1.77;0.90;;;26.90;65.00;;;;;;5110111;28;20668;-37
2022/08/02 11:41:02;;;;;;;0.80;0.77;;;27.00;65.30;;;;;;5112490;27;20208;-38
2022/08/02 11:43:30;;;;;;;1.65;1.30;;;27.00;65.20;;;;;;5098917;28;20223;-38
2022/08/02 11:45:58;;;;;;;2.55;1.38;;;27.10;65.20;;;;;;5112355;28;20551;-37
2022/08/02 11:48:35;;;;;;;13.00;1.63;;;27.10;65.60;;;;;;5109929;28;20282;-39
2022/08/02 11:51:09;;;;;;;25.83;2.83;;;27.10;67.20;;;;;;5108449;28;20659;-38
2022/08/02 11:53:49;;;;;;;8.02;1.80;;;27.00;67.10;;;;;;5101669;28;20192;-41
2022/08/02 11:56:18;;;;;;;3.97;1.40;;;27.00;68.30;;;;;;5102839;28;20195;-39
2022/08/02 11:59:00;;;;;;;2.35;1.00;;;26.90;68.90;;;;;;5096613;28;20200;-39
2022/08/02 12:01:27;;;;;;;1.95;0.90;;;26.90;69.10;;;;;;5109935;28;20295;-38
2022/08/02 12:03:57;;;;;;;7.32;1.70;;;26.90;68.90;;;;;;5108945;28;20275;-39
2022/08/02 12:06:27;;;;;;;12.57;1.58;;;26.90;69.40;;;;;;5111443;28;20192;-38
2022/08/02 12:08:59;;;;;;;2.53;1.30;;;26.80;69.10;;;;;;5110692;28;20237;-39
2022/08/02 12:11:26;;;;;;;1.42;0.70;;;26.70;68.50;;;;;;5109524;28;20184;-47
2022/08/02 12:13:54;;;;;;;9.13;1.75;;;26.70;68.50;;;;;;5107949;28;20194;-40
2022/08/02 12:19:25;;;;;;;3.95;1.20;;;26.60;69.70;;;;;;5099844;28;20729;-39
2022/08/02 12:24:50;;;;;;;11.07;1.67;;;26.60;70.00;;;;;;5083711;28;20988;-37
2022/08/02 12:27:31;;;;;;;3.90;1.10;;;26.40;70.70;;;;;;5080958;28;20200;-39
2022/08/02 12:30:01;;;;;;;9.02;1.30;;;26.40;70.70;;;;;;5083049;28;20203;-38
2022/08/02 12:32:28;;;;;;;33.80;3.67;;;26.40;70.90;;;;;;5085172;28;20201;-38
2022/08/02 12:35:07;;;;;;;23.20;2.50;;;26.40;71.30;;;;;;5084000;28;20188;-41
2022/08/02 12:37:35;;;;;;;17.80;4.50;;;26.40;71.30;;;;;;5084681;28;20183;-37
2022/08/02 12:40:19;;;;;;;10.13;4.25;;;26.40;71.60;;;;;;5082559;28;20816;-37
2022/08/02 12:42:47;;;;;;;10.40;2.33;;;26.40;71.40;;;;;;5084104;28;20217;-38
2022/08/02 12:45:14;;;;;;;2.97;1.33;;;26.40;71.40;;;;;;5083823;28;20211;-37
2022/08/02 12:47:47;;;;;;;3.97;1.70;;;26.50;71.60;;;;;;5083231;28;20254;-38
2022/08/02 12:50:17;;;;;;;1.92;1.15;;;26.60;71.60;;;;;;5081141;28;20265;-38
2022/08/02 12:52:44;;;;;;;1.23;0.80;;;26.60;71.20;;;;;;5084413;28;20197;-37
2022/08/02 12:55:20;;;;;;;1.02;0.93;;;26.70;71.20;;;;;;5085944;28;20204;-37
2022/08/02 12:57:55;;;;;;;1.20;1.00;;;26.70;70.80;;;;;;5081974;28;20715;-37
2022/08/02 13:00:27;;;;;;;1.10;1.00;;;26.70;70.10;;;;;;5085305;28;20293;-37
2022/08/02 13:02:55;;;;;;;2.70;1.27;;;26.60;70.10;;;;;;5082413;28;20220;-37
2022/08/02 13:05:22;;;;;;;1.55;1.00;;;26.60;69.90;;;;;;5083103;28;20279;-37